createdAt,value
2018-09-26T00:00:04.080Z,103311.63
2018-09-26T00:02:36.572Z,103313.63
2018-09-26T00:05:05.548Z,103318.65
2018-09-26T00:07:34.446Z,103315.77
2018-09-26T00:10:03.305Z,103310.69
2018-09-26T00:12:32.372Z,103304.89
2018-09-26T00:15:01.300Z,103299.36
2018-09-26T00:17:30.196Z,103299.30
2018-09-26T00:19:59.113Z,103295.34
2018-09-26T00:22:27.999Z,103295.18
2018-09-26T00:24:56.747Z,103301.69
2018-09-26T00:27:25.559Z,103298.18
2018-09-26T00:29:54.339Z,103288.95
2018-09-26T00:32:23.138Z,103291.62
2018-09-26T00:34:52.441Z,103293.92
2018-09-26T00:37:21.365Z,103301.97
2018-09-26T00:39:50.095Z,103304.69
2018-09-26T00:42:19.078Z,103290.65
2018-09-26T00:44:48.221Z,103287.87
2018-09-26T00:47:17.300Z,103285.78
2018-09-26T00:49:46.184Z,103278.89
2018-09-26T00:52:15.024Z,103276.73
2018-09-26T00:54:44.201Z,103275.78
2018-09-26T00:57:13.287Z,103268.77
2018-09-26T00:59:42.194Z,103262.03
2018-09-26T01:02:10.900Z,103255.25
2018-09-26T01:04:39.804Z,103275.50
2018-09-26T01:07:08.687Z,103264.08
2018-09-26T01:09:37.499Z,103261.19
2018-09-26T01:12:06.545Z,103255.58
2018-09-26T01:14:35.716Z,103251.91
2018-09-26T01:17:04.581Z,103248.45
2018-09-26T01:19:33.435Z,103238.23
2018-09-26T01:22:02.126Z,103227.02
2018-09-26T01:24:31.147Z,103226.30
2018-09-26T01:26:59.827Z,103222.72
2018-09-26T01:29:28.575Z,103219.34
2018-09-26T01:31:57.712Z,103220.13
2018-09-26T01:34:26.647Z,103226.07
2018-09-26T01:36:55.518Z,103219.05
2018-09-26T01:39:24.371Z,103217.88
2018-09-26T01:41:53.521Z,103201.59
2018-09-26T01:44:22.390Z,103207.17
2018-09-26T01:46:51.270Z,103211.19
2018-09-26T01:49:20.220Z,103205.15
2018-09-26T01:51:49.108Z,103210.17
2018-09-26T01:54:17.931Z,103215.42
2018-09-26T01:56:47.059Z,103213.22
2018-09-26T01:59:16.204Z,103208.81
2018-09-26T02:01:45.155Z,103210.12
2018-09-26T02:04:13.943Z,103205.94
2018-09-26T02:06:42.772Z,103207.45
2018-09-26T02:09:12.948Z,103211.42
2018-09-26T02:11:41.831Z,103212.45
2018-09-26T02:14:10.586Z,103201.88
2018-09-26T02:16:39.518Z,103189.77
2018-09-26T02:19:08.312Z,103196.39
2018-09-26T02:21:37.615Z,103198.59
2018-09-26T02:24:06.293Z,103196.62
2018-09-26T02:26:35.380Z,103196.39
2018-09-26T02:29:04.892Z,103196.31
2018-09-26T02:31:33.708Z,103203.78
2018-09-26T02:34:02.565Z,103192.37
2018-09-26T02:36:31.354Z,103190.50
2018-09-26T02:39:00.651Z,103194.01
2018-09-26T02:41:29.541Z,103197.28
2018-09-26T02:43:58.330Z,103203.80
2018-09-26T02:46:27.167Z,103206.61
2018-09-26T02:49:01.535Z,103196.37
2018-09-26T02:51:30.535Z,103203.32
2018-09-26T02:53:59.304Z,103206.20
2018-09-26T02:56:28.224Z,103206.72
2018-09-26T02:58:57.403Z,103208.25
2018-09-26T03:01:26.289Z,103205.27
2018-09-26T03:03:55.225Z,103199.94
2018-09-26T03:06:24.346Z,103190.84
2018-09-26T03:08:53.189Z,103198.25
2018-09-26T03:11:22.393Z,103193.28
2018-09-26T03:13:51.580Z,103194.41
2018-09-26T03:16:20.382Z,103193.09
2018-09-26T03:18:49.274Z,103186.22
2018-09-26T03:21:18.230Z,103190.77
2018-09-26T03:23:47.662Z,103191.40
2018-09-26T03:26:16.804Z,103184.11
2018-09-26T03:28:45.741Z,103176.03
2018-09-26T03:31:14.724Z,103180.95
2018-09-26T03:33:43.666Z,103186.31
2018-09-26T03:36:12.548Z,103192.93
2018-09-26T03:38:41.600Z,103194.11
2018-09-26T03:41:10.492Z,103195.37
2018-09-26T03:43:39.452Z,103200.13
2018-09-26T03:46:08.315Z,103189.53
2018-09-26T03:48:37.342Z,103189.83
2018-09-26T03:51:06.701Z,103183.66
2018-09-26T03:53:35.595Z,103172.70
2018-09-26T03:56:04.721Z,103164.63
2018-09-26T03:58:34.095Z,103160.04
2018-09-26T04:03:58.938Z,103150.77
2018-09-26T04:06:27.879Z,103149.63
2018-09-26T04:08:57.185Z,103150.42
2018-09-26T04:11:26.614Z,103154.59
2018-09-26T04:13:56.031Z,103147.22
2018-09-26T04:16:24.790Z,103151.50
2018-09-26T04:18:53.522Z,103151.77
2018-09-26T04:21:22.567Z,103140.77
2018-09-26T04:23:51.299Z,103144.61
2018-09-26T04:26:20.457Z,103144.50
2018-09-26T04:28:49.725Z,103141.28
2018-09-26T04:31:18.554Z,103128.77
2018-09-26T04:33:47.410Z,103124.70
2018-09-26T04:36:16.244Z,103127.08
2018-09-26T04:38:45.918Z,103130.70
2018-09-26T04:41:16.812Z,103133.86
2018-09-26T04:43:45.744Z,103125.27
2018-09-26T04:46:14.941Z,103113.61
2018-09-26T04:48:43.741Z,103113.61
2018-09-26T04:51:12.697Z,103109.98
2018-09-26T04:53:41.504Z,103101.52
2018-09-26T04:56:10.263Z,103095.75
2018-09-26T04:58:39.163Z,103092.17
2018-09-26T05:01:08.038Z,103093.89
2018-09-26T05:03:37.055Z,103094.58
2018-09-26T05:06:05.944Z,103085.80
2018-09-26T05:08:34.744Z,103085.69
2018-09-26T05:11:03.422Z,103083.87
2018-09-26T05:13:32.200Z,103070.31
2018-09-26T05:16:01.216Z,103062.74
2018-09-26T05:18:30.107Z,103067.23
2018-09-26T05:20:59.018Z,103063.31
2018-09-26T05:23:27.791Z,103068.83
2018-09-26T05:25:56.683Z,103067.52
2018-09-26T05:28:25.670Z,103061.52
2018-09-26T05:30:54.578Z,103063.41
2018-09-26T05:33:24.279Z,103056.30
2018-09-26T05:35:53.353Z,103056.31
2018-09-26T05:38:22.665Z,103051.91
2018-09-26T05:40:51.355Z,103043.36
2018-09-26T05:43:20.709Z,103047.25
2018-09-26T05:45:49.487Z,103040.39
2018-09-26T05:48:18.415Z,103043.36
2018-09-26T05:50:47.545Z,103046.73
2018-09-26T05:53:16.425Z,103054.48
2018-09-26T05:55:45.341Z,103052.27
2018-09-26T05:58:14.199Z,103041.47
2018-09-26T06:00:42.962Z,103042.48
2018-09-26T06:03:11.778Z,103039.87
2018-09-26T06:05:40.573Z,103053.63
2018-09-26T06:08:09.323Z,103052.90
2018-09-26T06:10:38.135Z,103048.83
2018-09-26T06:13:07.387Z,103045.17
2018-09-26T06:15:36.105Z,103034.67
2018-09-26T06:18:04.899Z,103041.45
2018-09-26T06:20:33.756Z,103044.57
2018-09-26T06:23:02.568Z,103050.30
2018-09-26T06:25:31.309Z,103044.26
2018-09-26T06:28:00.254Z,103033.30
2018-09-26T06:30:35.909Z,103040.14
2018-09-26T06:33:04.644Z,103043.05
2018-09-26T06:35:33.462Z,103041.38
2018-09-26T06:38:02.236Z,103039.28
2018-09-26T06:40:31.334Z,103040.09
2018-09-26T06:43:00.563Z,103035.19
2018-09-26T06:45:29.431Z,103039.05
2018-09-26T06:48:04.806Z,103038.41
2018-09-26T06:50:33.519Z,103040.50
2018-09-26T06:53:02.472Z,103043.02
2018-09-26T06:55:31.296Z,103047.50
2018-09-26T06:58:00.150Z,103047.89
2018-09-26T07:00:28.887Z,103038.47
2018-09-26T07:02:57.991Z,103033.87
2018-09-26T07:05:26.842Z,103039.34
2018-09-26T07:07:55.621Z,103035.43
2018-09-26T07:10:24.471Z,103034.24
2018-09-26T07:12:53.271Z,103037.36
2018-09-26T07:15:22.009Z,103039.03
2018-09-26T07:17:51.168Z,103038.93
2018-09-26T07:20:20.327Z,103036.42
2018-09-26T07:22:48.950Z,103034.33
2018-09-26T07:25:18.396Z,103030.95
2018-09-26T07:27:47.519Z,103032.17
2018-09-26T07:30:16.447Z,103022.09
2018-09-26T07:32:45.527Z,103023.56
2018-09-26T07:35:14.355Z,103025.36
2018-09-26T07:37:43.677Z,103023.52
2018-09-26T07:40:12.624Z,103022.48
2018-09-26T07:42:41.407Z,103016.16
2018-09-26T07:45:10.126Z,103023.28
2018-09-26T07:47:38.995Z,103015.47
2018-09-26T07:50:07.970Z,103019.28
2018-09-26T07:52:37.070Z,103016.02
2018-09-26T07:55:05.909Z,103016.06
2018-09-26T07:57:35.093Z,103013.34
2018-09-26T08:00:03.903Z,103024.19
2018-09-26T08:02:32.816Z,103014.89
2018-09-26T08:05:01.657Z,103026.69
2018-09-26T08:07:30.863Z,103022.27
2018-09-26T08:09:59.698Z,103021.44
2018-09-26T08:12:28.572Z,103019.00
2018-09-26T08:14:57.532Z,103010.67
2018-09-26T08:17:26.665Z,103020.98
2018-09-26T08:19:55.338Z,103013.10
2018-09-26T08:22:24.198Z,103014.61
2018-09-26T08:24:52.953Z,103002.06
2018-09-26T08:27:21.670Z,102996.55
2018-09-26T08:29:50.451Z,102995.34
2018-09-26T08:32:19.262Z,102998.41
2018-09-26T08:34:47.922Z,102988.87
2018-09-26T08:37:17.167Z,102988.12
2018-09-26T08:39:46.216Z,102992.61
2018-09-26T08:42:15.027Z,102980.36
2018-09-26T08:44:43.844Z,102970.73
2018-09-26T08:47:12.798Z,102957.09
2018-09-26T08:49:41.777Z,102951.56
2018-09-26T08:52:10.667Z,102940.30
2018-09-26T08:54:39.763Z,102931.50
2018-09-26T08:57:08.857Z,102928.94
2018-09-26T08:59:38.023Z,102926.86
2018-09-26T09:02:06.921Z,102926.31
2018-09-26T09:04:35.696Z,102919.30
2018-09-26T09:07:04.476Z,102909.47
2018-09-26T09:09:33.603Z,102911.38
2018-09-26T09:12:02.706Z,102917.27
2018-09-26T09:14:31.685Z,102913.80
2018-09-26T09:17:00.500Z,102919.10
2018-09-26T09:19:29.562Z,102920.14
2018-09-26T09:21:58.577Z,102922.70
2018-09-26T09:24:27.223Z,102930.12
2018-09-26T09:26:55.966Z,102923.80
2018-09-26T09:29:24.915Z,102914.70
2018-09-26T09:31:53.746Z,102911.05
2018-09-26T09:34:22.574Z,102875.34
2018-09-26T09:36:51.439Z,102898.27
2018-09-26T09:39:20.059Z,102897.59
2018-09-26T09:41:48.871Z,102895.68
2018-09-26T09:44:17.900Z,102889.31
2018-09-26T09:46:47.182Z,102891.08
2018-09-26T09:49:15.868Z,102879.75
2018-09-26T09:51:44.778Z,102892.96
2018-09-26T09:54:13.559Z,102891.36
2018-09-26T09:56:42.351Z,102896.67
2018-09-26T09:59:11.199Z,102895.22
2018-09-26T10:01:40.054Z,102899.23
2018-09-26T10:04:08.991Z,102896.73
2018-09-26T10:06:38.290Z,102884.72
2018-09-26T10:09:08.014Z,102880.34
2018-09-26T10:11:36.849Z,102876.94
2018-09-26T10:14:05.819Z,102880.02
2018-09-26T10:16:34.940Z,102882.14
2018-09-26T10:19:03.759Z,102876.33
2018-09-26T10:21:32.491Z,102876.16
2018-09-26T10:24:01.358Z,102871.72
2018-09-26T10:26:30.131Z,102869.26
2018-09-26T10:28:59.030Z,102854.59
2018-09-26T10:31:27.905Z,102851.81
2018-09-26T10:33:56.816Z,102865.63
2018-09-26T10:36:25.719Z,102849.05
2018-09-26T10:39:01.223Z,102837.16
2018-09-26T10:41:30.251Z,102844.91
2018-09-26T10:43:59.127Z,102840.73
2018-09-26T10:46:28.076Z,102841.03
2018-09-26T10:48:56.917Z,102827.17
2018-09-26T10:51:25.816Z,102829.69
2018-09-26T10:53:54.569Z,102830.80
2018-09-26T10:56:23.306Z,102829.69
2018-09-26T10:58:52.061Z,102829.97
2018-09-26T11:01:20.859Z,102828.59
2018-09-26T11:03:49.649Z,102820.84
2018-09-26T11:06:18.727Z,102800.56
2018-09-26T11:08:47.810Z,102797.44
2018-09-26T11:11:16.646Z,102781.23
2018-09-26T11:13:45.474Z,102783.45
2018-09-26T11:16:14.708Z,102776.09
2018-09-26T11:18:43.632Z,102770.69
2018-09-26T11:21:12.580Z,102751.24
2018-09-26T11:23:41.281Z,102756.42
2018-09-26T11:26:09.978Z,102748.11
2018-09-26T11:28:38.802Z,102738.96
2018-09-26T11:31:07.854Z,102736.70
2018-09-26T11:33:36.758Z,102736.08
2018-09-26T11:36:05.759Z,102727.47
2018-09-26T11:38:34.548Z,102726.23
2018-09-26T11:41:03.374Z,102731.34
2018-09-26T11:43:32.135Z,102721.61
2018-09-26T11:46:00.903Z,102721.75
2018-09-26T11:48:29.973Z,102722.59
2018-09-26T11:50:58.981Z,102710.42
2018-09-26T11:53:27.894Z,102708.69
2018-09-26T11:55:57.350Z,102697.81
2018-09-26T11:58:26.296Z,102706.63
2018-09-26T12:00:55.092Z,102697.66
2018-09-26T12:03:23.909Z,102694.96
2018-09-26T12:05:52.654Z,102684.36
2018-09-26T12:08:21.496Z,102680.52
2018-09-26T12:10:50.495Z,102681.78
2018-09-26T12:13:19.451Z,102675.83
2018-09-26T12:15:48.251Z,102667.39
2018-09-26T12:18:17.118Z,102673.29
2018-09-26T12:20:45.788Z,102662.66
2018-09-26T12:23:14.637Z,102643.70
2018-09-26T12:25:43.325Z,102642.76
2018-09-26T12:28:12.020Z,102645.64
2018-09-26T12:30:40.741Z,102644.78
2018-09-26T12:33:09.615Z,102643.14
2018-09-26T12:35:38.789Z,102645.30
2018-09-26T12:38:08.090Z,102640.35
2018-09-26T12:40:37.234Z,102642.36
2018-09-26T12:43:06.021Z,102639.75
2018-09-26T12:45:34.883Z,102651.48
2018-09-26T12:48:03.881Z,102634.77
2018-09-26T12:50:32.670Z,102634.44
2018-09-26T12:53:01.644Z,102631.89
2018-09-26T12:55:30.528Z,102624.45
2018-09-26T12:57:59.274Z,102618.92
2018-09-26T13:00:28.167Z,102610.20
2018-09-26T13:02:56.991Z,102612.63
2018-09-26T13:05:26.022Z,102598.50
2018-09-26T13:07:55.430Z,102589.41
2018-09-26T13:10:24.389Z,102582.44
2018-09-26T13:12:53.331Z,102586.26
2018-09-26T13:15:22.367Z,102586.23
2018-09-26T13:17:51.502Z,102591.06
2018-09-26T13:20:20.455Z,102582.89
2018-09-26T13:22:49.367Z,102575.83
2018-09-26T13:25:18.074Z,102577.52
2018-09-26T13:27:47.020Z,102565.05
2018-09-26T13:30:15.704Z,102579.13
2018-09-26T13:32:44.453Z,102562.89
2018-09-26T13:35:13.217Z,102547.31
2018-09-26T13:37:42.196Z,102553.42
2018-09-26T13:40:11.012Z,102554.17
2018-09-26T13:42:39.956Z,102562.45
2018-09-26T13:45:08.779Z,102562.02
2018-09-26T13:47:37.947Z,102560.02
2018-09-26T13:50:06.838Z,102540.86
2018-09-26T13:52:35.804Z,102534.23
2018-09-26T13:55:04.542Z,102529.06
2018-09-26T13:57:33.512Z,102536.55
2018-09-26T14:00:02.312Z,102526.17
2018-09-26T14:02:31.108Z,102514.59
2018-09-26T14:04:59.831Z,102512.82
2018-09-26T14:07:28.985Z,102514.13
2018-09-26T14:09:58.635Z,102517.55
2018-09-26T14:12:27.454Z,102513.72
2018-09-26T14:14:56.273Z,102517.42
2018-09-26T14:17:25.228Z,102502.02
2018-09-26T14:19:53.945Z,102494.14
2018-09-26T14:22:23.045Z,102490.89
2018-09-26T14:24:51.706Z,102485.73
2018-09-26T14:27:20.500Z,102472.39
2018-09-26T14:29:49.669Z,102472.47
2018-09-26T14:32:19.466Z,102467.81
2018-09-26T14:35:51.921Z,102463.28
2018-09-26T14:38:21.546Z,102458.22
2018-09-26T14:40:51.016Z,102466.06
2018-09-26T14:43:20.718Z,102456.63
2018-09-26T14:45:50.685Z,102455.41
2018-09-26T14:48:20.115Z,102451.05
2018-09-26T14:50:49.732Z,102439.89
2018-09-26T14:53:19.304Z,102444.03
2018-09-26T14:55:48.947Z,102426.63
2018-09-26T14:58:18.490Z,102431.56
2018-09-26T15:00:47.923Z,102434.89
2018-09-26T15:03:17.571Z,102420.13
2018-09-26T15:05:47.306Z,102419.80
2018-09-26T15:08:17.541Z,102417.45
2018-09-26T15:10:46.931Z,102417.79
2018-09-26T15:13:16.373Z,102417.02
2018-09-26T15:15:46.058Z,102418.10
2018-09-26T15:18:15.649Z,102416.31
2018-09-26T15:20:45.183Z,102422.77
2018-09-26T15:23:14.628Z,102415.84
2018-09-26T15:25:44.154Z,102421.86
2018-09-26T15:28:13.683Z,102409.39
2018-09-26T15:30:43.178Z,102403.91
2018-09-26T15:33:12.574Z,102408.19
2018-09-26T15:35:48.541Z,102403.55
2018-09-26T15:38:18.108Z,102403.88
2018-09-26T15:40:47.632Z,102400.78
2018-09-26T15:43:17.310Z,102390.64
2018-09-26T15:45:46.661Z,102389.33
2018-09-26T15:48:17.833Z,102391.31
2018-09-26T15:50:47.424Z,102397.74
2018-09-26T15:53:17.130Z,102396.97
2018-09-26T15:55:47.993Z,102392.05
2018-09-26T15:58:17.582Z,102396.83
2018-09-26T16:00:46.949Z,102402.91
2018-09-26T16:03:16.661Z,102400.13
2018-09-26T16:05:46.785Z,102396.53
2018-09-26T16:08:16.284Z,102386.30
2018-09-26T16:10:46.304Z,102389.61
2018-09-26T16:13:15.971Z,102396.33
2018-09-26T16:15:46.056Z,102387.02
2018-09-26T16:18:15.649Z,102378.77
2018-09-26T16:20:45.354Z,102369.89
2018-09-26T16:23:14.937Z,102368.79
2018-09-26T16:25:45.424Z,102370.22
2018-09-26T16:28:16.451Z,102364.45
2018-09-26T16:30:46.178Z,102365.00
2018-09-26T16:33:16.100Z,102364.03
2018-09-26T16:35:46.015Z,102371.05
2018-09-26T16:38:15.675Z,102375.56
2018-09-26T16:40:45.354Z,102380.81
2018-09-26T16:43:15.523Z,102381.95
2018-09-26T16:45:45.692Z,102380.06
2018-09-26T16:48:16.013Z,102373.77
2018-09-26T16:50:46.027Z,102373.00
2018-09-26T16:53:15.725Z,102372.77
2018-09-26T16:55:45.211Z,102369.47
2018-09-26T16:58:15.431Z,102371.47
2018-09-26T17:00:45.242Z,102369.94
2018-09-26T17:03:15.020Z,102365.00
2018-09-26T17:05:44.553Z,102353.35
2018-09-26T17:08:14.465Z,102357.77
2018-09-26T17:10:45.440Z,102361.38
2018-09-26T17:13:16.377Z,102358.94
2018-09-26T17:15:46.917Z,102358.11
2018-09-26T17:18:16.705Z,102360.00
2018-09-26T17:20:46.477Z,102368.22
2018-09-26T17:23:16.019Z,102365.52
2018-09-26T17:25:46.083Z,102365.21
2018-09-26T17:28:16.824Z,102365.19
2018-09-26T17:30:46.558Z,102360.19
2018-09-26T17:33:16.234Z,102356.84
2018-09-26T17:35:45.752Z,102358.78
2018-09-26T17:38:15.262Z,102362.65
2018-09-26T17:40:45.582Z,102370.33
2018-09-26T17:43:21.914Z,102372.05
2018-09-26T17:45:52.049Z,102365.36
2018-09-26T17:48:23.836Z,102375.34
2018-09-26T17:50:53.646Z,102373.63
2018-09-26T17:53:23.366Z,102374.20
2018-09-26T17:55:53.763Z,102373.95
2018-09-26T17:58:23.446Z,102367.54
2018-09-26T18:00:53.721Z,102362.34
2018-09-26T18:03:24.881Z,102365.11
2018-09-26T18:05:54.479Z,102376.41
2018-09-26T18:08:25.585Z,102377.77
2018-09-26T18:11:22.218Z,102370.27
2018-09-26T18:13:54.595Z,102365.81
2018-09-26T18:16:24.697Z,102365.30
2018-09-26T18:18:54.470Z,102362.74
2018-09-26T18:21:25.202Z,102368.86
2018-09-26T18:23:55.028Z,102375.53
2018-09-26T18:26:25.139Z,102374.95
2018-09-26T18:28:55.070Z,102368.61
2018-09-26T18:31:25.161Z,102370.55
2018-09-26T18:33:54.836Z,102365.30
2018-09-26T18:36:24.897Z,102371.91
2018-09-26T18:38:55.219Z,102375.50
2018-09-26T18:41:25.062Z,102375.77
2018-09-26T18:43:54.763Z,102374.39
2018-09-26T18:46:24.351Z,102378.58
2018-09-26T18:48:54.507Z,102387.67
2018-09-26T18:51:25.939Z,102386.25
2018-09-26T18:53:56.018Z,102386.28
2018-09-26T18:56:25.697Z,102385.45
2018-09-26T18:58:55.099Z,102381.03
2018-09-26T19:01:26.041Z,102373.59
2018-09-26T19:03:55.651Z,102381.12
2018-09-26T19:06:25.310Z,102381.14
2018-09-26T19:08:54.957Z,102392.50
2018-09-26T19:11:24.511Z,102384.54
2018-09-26T19:13:54.350Z,102385.09
2018-09-26T19:16:25.265Z,102389.77
2018-09-26T19:18:54.825Z,102389.46
2018-09-26T19:21:24.887Z,102387.22
2018-09-26T19:23:55.078Z,102383.11
2018-09-26T19:26:25.566Z,102382.83
2018-09-26T19:28:56.830Z,102383.66
2018-09-26T19:31:26.386Z,102385.29
2018-09-26T19:33:55.950Z,102388.03
2018-09-26T19:36:25.753Z,102383.00
2018-09-26T19:38:55.310Z,102386.59
2018-09-26T19:41:24.809Z,102391.02
2018-09-26T19:43:54.287Z,102384.38
2018-09-26T19:46:24.181Z,102380.75
2018-09-26T19:48:54.955Z,102385.14
2018-09-26T19:51:24.585Z,102377.47
2018-09-26T19:53:54.858Z,102377.49
2018-09-26T19:56:24.875Z,102376.91
2018-09-26T19:58:54.397Z,102385.29
2018-09-26T20:01:24.113Z,102387.75
2018-09-26T20:03:53.833Z,102385.48
2018-09-26T20:06:23.253Z,102378.33
2018-09-26T20:08:52.907Z,102374.70
2018-09-26T20:11:22.764Z,102383.91
2018-09-26T20:13:52.139Z,102379.42
2018-09-26T20:16:21.445Z,102376.88
2018-09-26T20:18:50.838Z,102375.00
2018-09-26T20:21:20.353Z,102366.68
2018-09-26T20:23:49.839Z,102370.55
2018-09-26T20:26:19.361Z,102370.80
2018-09-26T20:28:49.622Z,102369.66
2018-09-26T20:31:19.180Z,102367.95
2018-09-26T20:33:48.681Z,102361.31
2018-09-26T20:36:18.298Z,102362.12
2018-09-26T20:38:47.953Z,102359.90
2018-09-26T20:41:17.436Z,102357.73
2018-09-26T20:43:46.795Z,102353.41
2018-09-26T20:46:16.212Z,102352.58
2018-09-26T20:48:45.715Z,102354.75
2018-09-26T20:51:15.233Z,102349.98
2018-09-26T20:53:44.715Z,102354.92
2018-09-26T20:56:13.731Z,102349.94
2018-09-26T20:58:42.864Z,102353.73
2018-09-26T21:01:11.714Z,102354.01
2018-09-26T21:03:40.598Z,102356.06
2018-09-26T21:06:09.678Z,102352.98
2018-09-26T21:08:38.592Z,102357.17
2018-09-26T21:11:07.687Z,102362.70
2018-09-26T21:13:37.060Z,102361.08
2018-09-26T21:16:07.190Z,102348.63
2018-09-26T21:18:36.042Z,102360.84
2018-09-26T21:21:05.297Z,102361.11
2018-09-26T21:23:34.297Z,102360.80
2018-09-26T21:26:03.546Z,102360.04
2018-09-26T21:28:34.077Z,102366.06
2018-09-26T21:31:04.805Z,102368.30
2018-09-26T21:33:36.232Z,102366.68
2018-09-26T21:36:08.260Z,102370.36
2018-09-26T21:38:38.790Z,102372.85
2018-09-26T21:41:07.733Z,102365.61
2018-09-26T21:43:36.574Z,102370.09
2018-09-26T21:46:05.640Z,102367.56
2018-09-26T21:48:34.765Z,102368.95
2018-09-26T21:51:04.047Z,102365.38
2018-09-26T21:53:33.338Z,102358.47
2018-09-26T21:56:05.331Z,102357.83
2018-09-26T22:05:22.930Z,102369.20
2018-09-26T22:07:54.298Z,102359.21
2018-09-26T22:10:24.387Z,102359.21
2018-09-26T22:12:54.812Z,102352.58
2018-09-26T22:15:24.578Z,102353.95
2018-09-26T22:17:54.826Z,102359.24
2018-09-26T22:20:23.687Z,102356.41
2018-09-26T22:22:52.753Z,102352.85
2018-09-26T22:25:21.902Z,102359.48
2018-09-26T22:27:51.181Z,102360.32
2018-09-26T22:30:20.297Z,102361.39
2018-09-26T22:32:49.161Z,102378.02
2018-09-26T22:35:18.291Z,102360.04
2018-09-26T22:37:47.590Z,102354.27
2018-09-26T22:40:16.480Z,102354.79
2018-09-26T22:42:45.575Z,102347.59
2018-09-26T22:45:14.461Z,102354.55
2018-09-26T22:47:43.767Z,102348.49
2018-09-26T22:50:12.830Z,102353.16
2018-09-26T22:52:42.147Z,102365.08
2018-09-26T22:55:11.237Z,102357.06
2018-09-26T22:57:40.529Z,102364.03
2018-09-26T23:00:09.711Z,102358.20
2018-09-26T23:02:38.536Z,102358.97
2018-09-26T23:05:07.476Z,102363.94
2018-09-26T23:07:36.319Z,102356.23
2018-09-26T23:10:05.163Z,102363.97
2018-09-26T23:12:34.106Z,102352.97
2018-09-26T23:15:03.188Z,102353.28
2018-09-26T23:17:32.284Z,102354.43
2018-09-26T23:20:01.404Z,102346.99
2018-09-26T23:22:30.297Z,102337.59
2018-09-26T23:24:59.370Z,102336.48
2018-09-26T23:27:28.257Z,102335.13
2018-09-26T23:29:57.165Z,102342.34
2018-09-26T23:32:25.978Z,102348.97
2018-09-26T23:34:55.235Z,102341.23
2018-09-26T23:37:24.049Z,102334.05
2018-09-26T23:39:53.026Z,102342.33
2018-09-26T23:42:22.534Z,102337.05
2018-09-26T23:44:51.406Z,102334.85
2018-09-26T23:47:20.504Z,102337.05
2018-09-26T23:49:49.595Z,102332.66
2018-09-26T23:52:18.405Z,102328.25
2018-09-26T23:54:47.255Z,102341.53
2018-09-26T23:57:16.258Z,102339.60
2018-09-26T23:59:45.383Z,102340.98
